createdAt,value
2023-03-27T00:02:03.306Z,100772.44
2023-03-27T00:04:29.924Z,100774.97
2023-03-27T00:06:56.281Z,100775.84
2023-03-27T00:09:22.615Z,100782.88
2023-03-27T00:11:49.028Z,100789.50
2023-03-27T00:14:16.084Z,100787.00
2023-03-27T00:16:42.704Z,100795.75
2023-03-27T00:19:09.702Z,100808.16
2023-03-27T00:21:36.102Z,100804.44
2023-03-27T00:24:02.490Z,100807.13
2023-03-27T00:26:30.453Z,100818.72
2023-03-27T00:28:57.051Z,100824.50
2023-03-27T00:31:23.618Z,100831.59
2023-03-27T00:33:50.018Z,100830.94
2023-03-27T00:36:16.439Z,100841.72
2023-03-27T00:38:43.747Z,100839.44
2023-03-27T00:41:10.262Z,100848.56
2023-03-27T00:43:42.665Z,100850.03
2023-03-27T00:46:15.435Z,100852.72
2023-03-27T00:48:43.367Z,100852.91
2023-03-27T00:51:09.773Z,100847.56
2023-03-27T00:53:37.088Z,100853.34
2023-03-27T00:56:07.956Z,100850.22
2023-03-27T00:58:38.634Z,100858.31
2023-03-27T01:01:05.413Z,100851.69
2023-03-27T01:03:33.091Z,100866.19
2023-03-27T01:06:02.909Z,100880.69
2023-03-27T01:08:33.545Z,100873.63
2023-03-27T01:11:14.036Z,100885.66
2023-03-27T01:14:05.122Z,100878.63
2023-03-27T01:16:50.320Z,100886.91
2023-03-27T01:19:29.082Z,100891.00
2023-03-27T01:22:14.716Z,100886.25
2023-03-27T01:25:15.761Z,100902.19
2023-03-27T01:28:16.179Z,100891.84
2023-03-27T01:31:18.019Z,100908.81
2023-03-27T01:33:56.610Z,100912.53
2023-03-27T01:36:55.613Z,100913.16
2023-03-27T01:39:39.086Z,100923.72
2023-03-27T01:42:15.816Z,100927.81
2023-03-27T01:45:08.301Z,100921.22
2023-03-27T01:48:07.078Z,100936.13
2023-03-27T01:50:36.781Z,100936.94
2023-03-27T01:53:10.532Z,100940.06
2023-03-27T01:55:41.552Z,100940.69
2023-03-27T01:58:14.092Z,100949.38
2023-03-27T02:00:52.165Z,100948.13
2023-03-27T02:03:29.183Z,100949.78
2023-03-27T02:06:02.133Z,100950.22
2023-03-27T02:08:50.698Z,100963.00
2023-03-27T02:11:17.535Z,100961.97
2023-03-27T02:13:49.949Z,100965.47
2023-03-27T02:16:20.950Z,100971.88
2023-03-27T02:18:59.231Z,100973.31
2023-03-27T02:21:25.767Z,100977.25
2023-03-27T02:23:53.040Z,100982.81
2023-03-27T02:26:19.535Z,100979.06
2023-03-27T02:28:57.200Z,100982.38
2023-03-27T02:31:48.312Z,100993.56
2023-03-27T02:34:27.344Z,100999.75
2023-03-27T02:37:02.385Z,101001.00
2023-03-27T02:39:38.108Z,101003.88
2023-03-27T02:42:28.702Z,101004.50
2023-03-27T02:45:03.479Z,101013.59
2023-03-27T02:47:42.765Z,101017.09
2023-03-27T02:50:16.741Z,101026.22
2023-03-27T02:52:48.072Z,101030.53
2023-03-27T02:55:19.063Z,101039.00
2023-03-27T02:57:51.944Z,101042.91
2023-03-27T03:00:25.945Z,101053.88
2023-03-27T03:03:00.389Z,101044.78
2023-03-27T03:05:27.112Z,101049.94
2023-03-27T03:07:54.343Z,101048.50
2023-03-27T03:10:21.291Z,101048.06
2023-03-27T03:12:47.757Z,101051.94
2023-03-27T03:15:14.630Z,101067.88
2023-03-27T03:17:41.823Z,101061.22
2023-03-27T03:20:09.898Z,101062.44
2023-03-27T03:22:39.856Z,101060.78
2023-03-27T03:25:07.663Z,101070.75
2023-03-27T03:27:34.228Z,101085.59
2023-03-27T03:30:00.817Z,101081.50
2023-03-27T03:32:27.462Z,101085.59
2023-03-27T03:34:53.957Z,101092.03
2023-03-27T03:37:20.697Z,101097.59
2023-03-27T03:39:47.035Z,101106.84
2023-03-27T03:42:22.210Z,101106.44
2023-03-27T03:44:49.539Z,101106.81
2023-03-27T03:47:16.230Z,101111.59
2023-03-27T03:49:42.619Z,101107.25
2023-03-27T03:52:09.074Z,101114.28
2023-03-27T03:54:38.549Z,101114.91
2023-03-27T03:57:05.069Z,101121.47
2023-03-27T03:59:31.703Z,101125.44
2023-03-27T04:01:58.154Z,101119.34
2023-03-27T04:04:24.578Z,101123.06
2023-03-27T04:06:50.974Z,101129.66
2023-03-27T04:09:17.345Z,101134.66
2023-03-27T04:11:43.707Z,101134.66
2023-03-27T04:14:10.353Z,101139.66
2023-03-27T04:16:36.872Z,101147.06
2023-03-27T04:19:03.257Z,101147.88
2023-03-27T04:21:29.685Z,101155.28
2023-03-27T04:24:02.182Z,101159.22
2023-03-27T04:26:29.591Z,101174.31
2023-03-27T04:28:56.024Z,101173.84
2023-03-27T04:31:22.453Z,101186.66
2023-03-27T04:33:51.925Z,101186.19
2023-03-27T04:36:18.998Z,101194.72
2023-03-27T04:38:45.686Z,101202.31
2023-03-27T04:41:12.017Z,101203.34
2023-03-27T04:43:40.170Z,101205.13
2023-03-27T04:46:07.990Z,101198.47
2023-03-27T04:48:37.622Z,101203.84
2023-03-27T04:51:05.612Z,101209.22
2023-03-27T04:53:32.379Z,101211.28
2023-03-27T04:55:58.728Z,101220.38
2023-03-27T04:58:28.312Z,101217.28
2023-03-27T05:00:56.450Z,101225.09
2023-03-27T05:03:27.867Z,101225.91
2023-03-27T05:05:54.323Z,101228.41
2023-03-27T05:08:20.935Z,101238.25
2023-03-27T05:10:47.594Z,101236.38
2023-03-27T05:13:14.039Z,101237.59
2023-03-27T05:15:40.470Z,101237.66
2023-03-27T05:18:07.690Z,101242.50
2023-03-27T05:20:34.610Z,101242.09
2023-03-27T05:23:01.002Z,101251.38
2023-03-27T05:25:28.564Z,101254.88
2023-03-27T05:27:55.012Z,101259.16
2023-03-27T05:30:23.926Z,101263.69
2023-03-27T05:32:54.347Z,101265.56
2023-03-27T05:35:23.734Z,101273.22
2023-03-27T05:37:52.993Z,101282.78
2023-03-27T05:40:22.616Z,101279.97
2023-03-27T05:42:50.300Z,101282.03
2023-03-27T05:45:17.809Z,101283.69
2023-03-27T05:47:55.524Z,101292.66
2023-03-27T05:50:25.483Z,101289.59
2023-03-27T05:53:00.560Z,101298.69
2023-03-27T05:55:28.025Z,101292.28
2023-03-27T05:57:54.908Z,101300.41
2023-03-27T06:00:25.664Z,101300.88
2023-03-27T06:02:56.948Z,101301.59
2023-03-27T06:05:24.586Z,101308.00
2023-03-27T06:07:51.958Z,101314.19
2023-03-27T06:10:20.492Z,101311.19
2023-03-27T06:12:48.976Z,101311.25
2023-03-27T06:15:15.776Z,101318.19
2023-03-27T06:17:43.626Z,101314.09
2023-03-27T06:20:12.868Z,101321.75
2023-03-27T06:22:49.940Z,101317.03
2023-03-27T06:25:17.136Z,101318.75
2023-03-27T06:27:47.864Z,101332.00
2023-03-27T06:30:20.798Z,101346.09
2023-03-27T06:32:52.807Z,101346.59
2023-03-27T06:35:20.370Z,101342.13
2023-03-27T06:37:51.279Z,101354.16
2023-03-27T06:40:22.807Z,101350.47
2023-03-27T06:43:00.766Z,101358.91
2023-03-27T06:45:30.264Z,101357.50
2023-03-27T06:48:16.955Z,101370.16
2023-03-27T06:50:46.954Z,101366.28
2023-03-27T06:55:48.021Z,101364.66
2023-03-27T06:58:14.717Z,101373.16
2023-03-27T07:00:41.502Z,101380.28
2023-03-27T07:03:10.801Z,101376.88
2023-03-27T07:05:40.492Z,101385.50
2023-03-27T07:08:21.832Z,101386.75
2023-03-27T07:10:59.974Z,101396.84
2023-03-27T07:13:34.929Z,101388.41
2023-03-27T07:16:01.413Z,101398.06
2023-03-27T07:18:27.838Z,101401.09
2023-03-27T07:20:54.466Z,101403.63
2023-03-27T07:23:21.317Z,101417.06
2023-03-27T07:25:49.878Z,101423.91
2023-03-27T07:28:18.220Z,101419.19
2023-03-27T07:30:44.695Z,101428.44
2023-03-27T07:33:12.393Z,101421.78
2023-03-27T07:35:46.741Z,101421.59
2023-03-27T07:38:14.153Z,101430.75
2023-03-27T07:40:43.171Z,101428.78
2023-03-27T07:43:09.733Z,101425.16
2023-03-27T07:45:36.559Z,101426.00
2023-03-27T07:48:12.259Z,101425.03
2023-03-27T07:50:38.860Z,101426.16
2023-03-27T07:53:06.335Z,101421.63
2023-03-27T07:55:32.970Z,101428.94
2023-03-27T07:58:02.952Z,101436.63
2023-03-27T08:00:31.281Z,101440.75
2023-03-27T08:03:10.020Z,101439.47
2023-03-27T08:05:37.043Z,101441.75
2023-03-27T08:08:03.912Z,101435.72
2023-03-27T08:10:30.697Z,101449.94
2023-03-27T08:12:57.232Z,101455.31
2023-03-27T08:15:25.043Z,101458.84
2023-03-27T08:17:54.468Z,101453.56
2023-03-27T08:20:22.739Z,101457.78
2023-03-27T08:22:53.312Z,101461.84
2023-03-27T08:25:22.688Z,101468.50
2023-03-27T08:27:49.923Z,101457.59
2023-03-27T08:30:17.331Z,101466.81
2023-03-27T08:32:44.419Z,101462.91
2023-03-27T08:35:12.078Z,101467.09
2023-03-27T08:37:38.540Z,101473.09
2023-03-27T08:40:13.928Z,101476.38
2023-03-27T08:42:44.067Z,101474.75
2023-03-27T08:45:20.655Z,101472.00
2023-03-27T08:47:59.929Z,101486.34
2023-03-27T08:50:34.490Z,101476.25
2023-03-27T08:53:03.349Z,101482.41
2023-03-27T08:55:41.668Z,101489.66
2023-03-27T08:58:21.663Z,101501.13
2023-03-27T09:01:04.406Z,101495.69
2023-03-27T09:03:44.165Z,101505.69
2023-03-27T09:06:38.268Z,101506.19
2023-03-27T09:09:42.916Z,101506.75
2023-03-27T09:12:28.754Z,101510.56
2023-03-27T09:15:05.739Z,101510.91
2023-03-27T09:17:38.247Z,101506.97
2023-03-27T09:20:18.455Z,101515.63
2023-03-27T09:22:52.533Z,101516.44
2023-03-27T09:25:32.535Z,101516.69
2023-03-27T09:28:01.291Z,101523.78
2023-03-27T09:30:30.439Z,101515.72
2023-03-27T09:33:01.778Z,101522.22
2023-03-27T09:35:28.212Z,101526.19
2023-03-27T09:38:22.008Z,101527.63
2023-03-27T09:41:00.598Z,101528.03
2023-03-27T09:43:37.442Z,101523.22
2023-03-27T09:46:04.556Z,101520.81
2023-03-27T09:48:45.207Z,101532.72
2023-03-27T09:51:35.721Z,101533.38
2023-03-27T09:54:02.320Z,101531.97
2023-03-27T09:56:29.395Z,101535.97
2023-03-27T09:58:57.193Z,101530.00
2023-03-27T10:01:34.575Z,101530.69
2023-03-27T10:04:01.751Z,101537.00
2023-03-27T10:06:31.465Z,101532.28
2023-03-27T10:09:02.404Z,101540.63
2023-03-27T10:11:32.623Z,101540.38
2023-03-27T10:14:01.414Z,101540.81
2023-03-27T10:16:29.242Z,101533.78
2023-03-27T10:18:58.599Z,101535.69
2023-03-27T10:21:27.405Z,101538.28
2023-03-27T10:24:02.122Z,101537.06
2023-03-27T10:26:31.395Z,101549.53
2023-03-27T10:29:05.102Z,101558.34
2023-03-27T10:31:37.867Z,101566.53
2023-03-27T10:34:06.818Z,101562.50
2023-03-27T10:36:38.322Z,101561.00
2023-03-27T10:39:13.665Z,101565.38
2023-03-27T10:41:40.708Z,101557.28
2023-03-27T10:44:20.188Z,101560.03
2023-03-27T10:46:47.168Z,101561.75
2023-03-27T10:49:37.144Z,101568.00
2023-03-27T10:52:20.783Z,101570.31
2023-03-27T10:55:34.810Z,101580.72
2023-03-27T10:58:06.352Z,101576.34
2023-03-27T11:00:38.746Z,101578.84
2023-03-27T11:03:14.836Z,101574.66
2023-03-27T11:05:47.139Z,101576.91
2023-03-27T11:08:27.432Z,101576.28
2023-03-27T11:11:00.579Z,101582.69
2023-03-27T11:13:33.394Z,101579.97
2023-03-27T11:16:09.093Z,101581.69
2023-03-27T11:18:48.943Z,101579.16
2023-03-27T11:21:22.144Z,101578.72
2023-03-27T11:23:59.903Z,101583.44
2023-03-27T11:26:33.820Z,101580.63
2023-03-27T11:29:16.840Z,101586.19
2023-03-27T11:31:48.326Z,101592.44
2023-03-27T11:34:29.804Z,101595.75
2023-03-27T11:36:59.639Z,101592.75
2023-03-27T11:39:40.898Z,101611.06
2023-03-27T11:42:18.911Z,101614.41
2023-03-27T11:44:45.570Z,101620.44
2023-03-27T11:47:33.212Z,101625.78
2023-03-27T11:49:59.638Z,101630.72
2023-03-27T11:52:55.473Z,101633.91
2023-03-27T11:55:34.178Z,101657.28
2023-03-27T11:58:26.608Z,101645.06
2023-03-27T12:01:23.299Z,101644.25
2023-03-27T12:04:03.027Z,101647.81
2023-03-27T12:07:15.394Z,101664.59
2023-03-27T12:10:18.884Z,101669.41
2023-03-27T12:13:00.136Z,101673.75
2023-03-27T12:15:43.371Z,101675.34
2023-03-27T12:18:15.885Z,101684.09
2023-03-27T12:20:53.676Z,101688.06
2023-03-27T12:24:04.484Z,101676.66
2023-03-27T12:27:09.439Z,101676.19
2023-03-27T12:29:42.284Z,101668.06
2023-03-27T12:32:39.855Z,101666.78
2023-03-27T12:35:21.410Z,101655.81
2023-03-27T12:38:10.939Z,101659.09
2023-03-27T12:40:37.264Z,101664.56
2023-03-27T12:43:21.768Z,101659.81
2023-03-27T12:46:09.653Z,101652.28
2023-03-27T12:48:54.304Z,101652.06
2023-03-27T12:51:37.833Z,101642.06
2023-03-27T12:54:32.561Z,101648.31
2023-03-27T12:57:05.913Z,101641.03
2023-03-27T12:59:54.883Z,101641.50
2023-03-27T13:02:58.567Z,101635.47
2023-03-27T13:05:49.759Z,101635.78
2023-03-27T13:08:22.737Z,101642.34
2023-03-27T13:10:57.829Z,101637.22
2023-03-27T13:14:02.622Z,101640.44
2023-03-27T13:16:39.011Z,101632.53
2023-03-27T13:19:21.002Z,101632.75
2023-03-27T13:22:08.731Z,101652.16
2023-03-27T13:24:54.368Z,101663.72
2023-03-27T13:27:27.272Z,101689.41
2023-03-27T13:29:53.808Z,101693.47
2023-03-27T13:32:32.874Z,101704.97
2023-03-27T13:35:11.515Z,101710.13
2023-03-27T13:37:48.172Z,101721.94
2023-03-27T13:40:36.688Z,101719.16
2023-03-27T13:43:12.336Z,101722.63
2023-03-27T13:45:49.674Z,101710.19
2023-03-27T13:48:34.464Z,101707.16
2023-03-27T13:51:16.066Z,101703.47
2023-03-27T13:54:01.469Z,101705.53
2023-03-27T13:56:51.952Z,101698.03
2023-03-27T13:59:40.161Z,101694.19
2023-03-27T14:02:27.040Z,101689.13
2023-03-27T14:05:31.500Z,101689.44
2023-03-27T14:08:14.566Z,101680.09
2023-03-27T14:10:50.318Z,101674.81
2023-03-27T14:13:41.420Z,101662.84
2023-03-27T14:16:15.939Z,101670.22
2023-03-27T14:19:09.205Z,101664.38
2023-03-27T14:22:03.402Z,101664.41
2023-03-27T14:24:48.945Z,101666.00
2023-03-27T14:27:19.782Z,101660.78
2023-03-27T14:29:49.354Z,101652.84
2023-03-27T14:32:20.370Z,101658.00
2023-03-27T14:35:04.466Z,101679.03
2023-03-27T14:37:38.858Z,101698.16
2023-03-27T14:40:20.308Z,101715.38
2023-03-27T14:42:49.577Z,101725.91
2023-03-27T14:45:21.742Z,101727.00
2023-03-27T14:47:51.863Z,101720.59
2023-03-27T14:50:18.428Z,101711.41
2023-03-27T14:52:44.921Z,101713.97
2023-03-27T14:55:18.586Z,101707.31
2023-03-27T14:57:48.377Z,101701.94
2023-03-27T15:00:21.294Z,101706.47
2023-03-27T15:02:52.071Z,101708.69
2023-03-27T15:05:22.443Z,101710.44
2023-03-27T15:07:49.540Z,101725.16
2023-03-27T15:10:24.239Z,101724.41
2023-03-27T15:12:51.138Z,101719.00
2023-03-27T15:15:27.105Z,101719.25
2023-03-27T15:17:54.817Z,101719.50
2023-03-27T15:20:25.134Z,101724.44
2023-03-27T15:23:00.763Z,101715.81
2023-03-27T15:25:49.678Z,101714.63
2023-03-27T15:28:32.763Z,101727.75
2023-03-27T15:31:03.230Z,101730.63
2023-03-27T15:33:41.007Z,101731.13
2023-03-27T15:36:26.236Z,101737.28
2023-03-27T15:39:00.576Z,101739.72
2023-03-27T15:41:32.777Z,101742.41
2023-03-27T15:44:05.527Z,101741.72
2023-03-27T15:46:46.342Z,101740.03
2023-03-27T15:49:29.229Z,101742.69
2023-03-27T15:51:57.185Z,101742.66
2023-03-27T15:54:35.389Z,101748.78
2023-03-27T15:57:10.169Z,101744.31
2023-03-27T15:59:51.927Z,101748.47
2023-03-27T16:02:21.583Z,101755.63
2023-03-27T16:04:57.119Z,101755.28
2023-03-27T16:07:32.534Z,101762.41
2023-03-27T16:10:06.781Z,101759.09
2023-03-27T16:12:54.818Z,101772.22
2023-03-27T16:15:41.037Z,101774.94
2023-03-27T16:18:19.816Z,101782.09
2023-03-27T16:20:46.214Z,101778.91
2023-03-27T16:23:12.530Z,101784.44
2023-03-27T16:25:40.468Z,101790.44
2023-03-27T16:28:10.988Z,101799.25
2023-03-27T16:30:41.397Z,101782.25
2023-03-27T16:33:15.803Z,101779.34
2023-03-27T16:35:43.178Z,101788.84
2023-03-27T16:38:09.764Z,101780.97
2023-03-27T16:40:36.389Z,101790.97
2023-03-27T16:43:02.842Z,101774.94
2023-03-27T16:45:29.628Z,101774.56
2023-03-27T16:47:56.323Z,101775.97
2023-03-27T16:50:26.555Z,101779.69
2023-03-27T16:52:52.888Z,101790.91
2023-03-27T16:55:19.423Z,101788.75
2023-03-27T16:57:48.818Z,101791.25
2023-03-27T17:00:16.564Z,101789.50
2023-03-27T17:02:44.225Z,101793.63
2023-03-27T17:05:10.825Z,101809.78
2023-03-27T17:07:37.260Z,101804.78
2023-03-27T17:10:04.161Z,101803.94
2023-03-27T17:12:30.610Z,101808.50
2023-03-27T17:14:57.047Z,101820.97
2023-03-27T17:17:23.738Z,101815.16
2023-03-27T17:19:50.371Z,101816.81
2023-03-27T17:22:16.818Z,101822.22
2023-03-27T17:24:55.467Z,101832.66
2023-03-27T17:27:23.945Z,101839.25
2023-03-27T17:29:51.168Z,101838.25
2023-03-27T17:32:17.538Z,101833.81
2023-03-27T17:34:43.949Z,101837.16
2023-03-27T17:37:12.387Z,101846.31
2023-03-27T17:39:39.003Z,101839.84
2023-03-27T17:42:05.651Z,101850.84
2023-03-27T17:44:32.025Z,101854.16
2023-03-27T17:46:58.579Z,101848.75
2023-03-27T17:49:24.915Z,101860.38
2023-03-27T17:51:51.763Z,101859.69
2023-03-27T17:54:18.453Z,101852.44
2023-03-27T17:56:44.889Z,101867.16
2023-03-27T17:59:11.398Z,101863.56
2023-03-27T18:01:37.838Z,101877.19
2023-03-27T18:04:04.438Z,101875.50
2023-03-27T18:06:31.001Z,101885.03
2023-03-27T18:08:58.074Z,101885.03
2023-03-27T18:11:24.597Z,101892.47
2023-03-27T18:13:53.108Z,101890.44
2023-03-27T18:16:21.566Z,101890.81
2023-03-27T18:18:48.211Z,101895.13
2023-03-27T18:21:16.195Z,101895.72
2023-03-27T18:23:45.808Z,101911.50
2023-03-27T18:26:13.758Z,101908.56
2023-03-27T18:28:40.137Z,101914.69
2023-03-27T18:31:08.935Z,101916.03
2023-03-27T18:33:35.902Z,101914.69
2023-03-27T18:36:04.003Z,101914.69
2023-03-27T18:38:30.466Z,101933.72
2023-03-27T18:40:57.704Z,101930.75
2023-03-27T18:43:24.358Z,101941.56
2023-03-27T18:45:58.931Z,101941.91
2023-03-27T18:48:26.473Z,101944.38
2023-03-27T18:50:57.880Z,101945.56
2023-03-27T18:53:25.078Z,101952.28
2023-03-27T18:55:52.503Z,101942.13
2023-03-27T18:58:20.758Z,101944.84
2023-03-27T19:00:47.398Z,101955.34
2023-03-27T19:03:20.202Z,101955.97
2023-03-27T19:05:47.792Z,101952.00
2023-03-27T19:08:14.841Z,101952.00
2023-03-27T19:10:41.310Z,101957.78
2023-03-27T19:13:07.858Z,101959.53
2023-03-27T19:15:34.394Z,101955.91
2023-03-27T19:18:01.512Z,101963.69
2023-03-27T19:20:28.478Z,101963.16
2023-03-27T19:22:54.839Z,101965.69
2023-03-27T19:25:21.203Z,101960.94
2023-03-27T19:27:47.559Z,101967.63
2023-03-27T19:30:14.598Z,101965.50
2023-03-27T19:32:41.327Z,101970.41
2023-03-27T19:35:08.965Z,101974.94
2023-03-27T19:37:35.572Z,101974.47
2023-03-27T19:40:01.944Z,101976.22
2023-03-27T19:42:29.410Z,101977.06
2023-03-27T19:44:56.023Z,101973.53
2023-03-27T19:47:22.448Z,101971.88
2023-03-27T19:49:48.935Z,101984.06
2023-03-27T19:52:19.733Z,101983.84
2023-03-27T19:54:46.497Z,101985.06
2023-03-27T19:57:13.017Z,101982.72
2023-03-27T19:59:39.475Z,101987.44
2023-03-27T20:02:06.760Z,101993.22
2023-03-27T20:04:33.399Z,101992.50
2023-03-27T20:07:01.691Z,101989.88
2023-03-27T20:09:28.215Z,101992.41
2023-03-27T20:11:54.872Z,102000.47
2023-03-27T20:14:21.242Z,101994.44
2023-03-27T20:16:48.217Z,101995.63
2023-03-27T20:19:16.623Z,102002.69
2023-03-27T20:21:43.599Z,102007.13
2023-03-27T20:24:12.769Z,102008.81
2023-03-27T20:26:41.239Z,102001.41
2023-03-27T20:29:10.629Z,102016.91
2023-03-27T20:31:38.121Z,102008.16
2023-03-27T20:34:06.338Z,102006.56
2023-03-27T20:36:34.778Z,102006.56
2023-03-27T20:39:04.675Z,102011.94
2023-03-27T20:41:38.877Z,102006.19
2023-03-27T20:44:15.480Z,102015.47
2023-03-27T20:46:47.377Z,102013.59
2023-03-27T20:49:37.547Z,102007.38
2023-03-27T20:52:07.860Z,102009.97
2023-03-27T20:54:34.677Z,102013.03
2023-03-27T20:57:02.376Z,102013.03
2023-03-27T20:59:29.892Z,102015.53
2023-03-27T21:01:57.006Z,102015.53
2023-03-27T21:04:25.790Z,102017.91
2023-03-27T21:06:54.826Z,102015.44
2023-03-27T21:09:22.704Z,102020.81
2023-03-27T21:11:49.234Z,102022.19
2023-03-27T21:14:16.025Z,102022.91
2023-03-27T21:16:42.738Z,102012.13
2023-03-27T21:19:10.601Z,102022.22
2023-03-27T21:21:37.267Z,102021.78
2023-03-27T21:24:03.782Z,102021.28
2023-03-27T21:26:30.387Z,102023.34
2023-03-27T21:28:56.718Z,102024.00
2023-03-27T21:31:23.200Z,102026.31
2023-03-27T21:33:49.545Z,102026.38
2023-03-27T21:36:16.362Z,102029.88
2023-03-27T21:38:42.836Z,102029.06
2023-03-27T21:41:12.948Z,102040.66
2023-03-27T21:43:39.271Z,102035.09
2023-03-27T21:46:06.356Z,102043.72
2023-03-27T21:48:32.813Z,102045.75
2023-03-27T21:51:04.912Z,102046.31
2023-03-27T21:53:31.367Z,102050.47
2023-03-27T21:55:58.318Z,102048.31
2023-03-27T21:58:25.721Z,102054.06
2023-03-27T22:00:54.723Z,102054.41
2023-03-27T22:03:21.093Z,102054.78
2023-03-27T22:05:57.383Z,102056.78
2023-03-27T22:08:33.997Z,102050.44
2023-03-27T22:11:01.761Z,102053.66
2023-03-27T22:13:28.132Z,102050.97
2023-03-27T22:15:54.749Z,102063.59
2023-03-27T22:18:21.323Z,102061.94
2023-03-27T22:20:47.771Z,102070.72
2023-03-27T22:23:14.086Z,102069.72
2023-03-27T22:25:40.394Z,102072.78
2023-03-27T22:28:06.790Z,102068.13
2023-03-27T22:30:33.173Z,102072.00
2023-03-27T22:32:59.602Z,102078.88
2023-03-27T22:35:26.290Z,102077.53
2023-03-27T22:37:52.620Z,102083.63
2023-03-27T22:40:19.056Z,102086.47
2023-03-27T22:42:45.566Z,102089.69
2023-03-27T22:45:12.099Z,102086.81
2023-03-27T22:47:38.445Z,102095.06
2023-03-27T22:50:06.347Z,102096.72
2023-03-27T22:52:32.997Z,102098.41
2023-03-27T22:54:59.472Z,102102.75
2023-03-27T22:57:25.944Z,102112.03
2023-03-27T22:59:52.480Z,102118.06
2023-03-27T23:02:18.939Z,102115.22
2023-03-27T23:04:45.388Z,102120.41
2023-03-27T23:07:12.124Z,102121.59
2023-03-27T23:09:38.536Z,102119.56
2023-03-27T23:12:05.276Z,102124.13
2023-03-27T23:14:31.808Z,102123.94
2023-03-27T23:16:58.185Z,102121.25
2023-03-27T23:19:24.753Z,102118.56
2023-03-27T23:21:51.114Z,102130.16
2023-03-27T23:24:17.466Z,102133.03
2023-03-27T23:26:43.923Z,102141.09
2023-03-27T23:29:10.290Z,102141.91
2023-03-27T23:31:36.669Z,102145.44
2023-03-27T23:34:03.081Z,102150.13
2023-03-27T23:36:29.722Z,102144.09
2023-03-27T23:38:56.413Z,102142.06
2023-03-27T23:41:22.916Z,102142.72
2023-03-27T23:43:49.538Z,102146.03
2023-03-27T23:46:16.745Z,102146.03
2023-03-27T23:48:44.459Z,102150.38
2023-03-27T23:51:12.820Z,102158.06
2023-03-27T23:53:39.376Z,102159.91
2023-03-27T23:56:06.246Z,102154.31
2023-03-27T23:58:32.985Z,102157.69
